Time;durP1;ratioP1;P1;durP2;ratioP2;P2;SDS_P1;SDS_P2;PMS_P1;PMS_P2;Temp;Humidity;BMP_temperature;BMP_pressure;BME280_temperature;BME280_humidity;BME280_pressure;Samples;Min_cycle;Max_cycle;Signal;HPM_P1;HPM_P2
2024/01/01 00:00:06;;;;;;;9.07;1.45;;;;;;;-2.38;65.73;101689.72;5039769;28;20700;-72
2024/01/01 00:02:33;;;;;;;1.70;1.05;;;;;;;-2.38;65.56;101680.34;5022458;28;20542;-72
2024/01/01 00:04:59;;;;;;;3.28;1.23;;;;;;;-2.37;64.91;101686.34;5042313;28;20083;-72
2024/01/01 00:07:26;;;;;;;4.00;1.50;;;;;;;-2.38;65.61;101688.03;5042718;28;20487;-72
2024/01/01 00:09:53;;;;;;;3.85;1.25;;;;;;;-2.38;65.52;101690.59;5040645;28;20116;-72
2024/01/01 00:12:22;;;;;;;2.67;1.10;;;;;;;-2.38;65.63;101689.72;5044799;28;20546;-72
2024/01/01 00:14:48;;;;;;;1.00;0.70;;;;;;;-2.37;66.02;101676.97;5041624;28;20045;-73
2024/01/01 00:17:15;;;;;;;2.20;1.25;;;;;;;-2.37;65.39;101671.88;5046872;28;20131;-73
2024/01/01 00:19:42;;;;;;;3.35;0.77;;;;;;;-2.37;65.65;101666.72;5047382;28;20144;-72
2024/01/01 00:22:09;;;;;;;4.72;0.80;;;;;;;-2.33;65.75;101666.88;5045479;28;20084;-72
2024/01/01 00:24:36;;;;;;;0.95;0.63;;;;;;;-2.31;65.61;101678.03;5043434;28;20650;-73
2024/01/01 00:27:03;;;;;;;3.97;1.00;;;;;;;-2.31;65.70;101676.38;5043025;28;20124;-73
2024/01/01 00:29:32;;;;;;;3.13;1.48;;;;;;;-2.31;65.15;101671.25;5040451;28;20072;-72
2024/01/01 00:31:59;;;;;;;2.97;1.10;;;;;;;-2.33;65.34;101664.31;5041747;28;20123;-72
2024/01/01 00:34:26;;;;;;;1.33;0.93;;;;;;;-2.33;65.63;101670.31;5039699;28;20476;-72
2024/01/01 00:36:52;;;;;;;1.23;0.63;;;;;;;-2.34;65.26;101671.09;5042791;28;20115;-72
2024/01/01 00:39:19;;;;;;;1.83;0.90;;;;;;;-2.36;64.35;101668.47;5040733;28;20476;-72
2024/01/01 00:41:46;;;;;;;2.40;0.90;;;;;;;-2.34;65.68;101668.53;5041389;28;20087;-73
2024/01/01 00:44:14;;;;;;;1.02;0.55;;;;;;;-2.35;65.53;101669.34;5041229;28;20174;-73
2024/01/01 00:46:43;;;;;;;1.98;0.75;;;;;;;-2.32;65.52;101668.59;5044988;28;20454;-74
2024/01/01 00:49:10;;;;;;;1.48;0.80;;;;;;;-2.33;65.39;101672.88;5041166;28;20083;-73
2024/01/01 00:51:36;;;;;;;1.80;1.63;;;;;;;-2.30;65.18;101675.56;5040461;28;20085;-74
2024/01/01 00:54:03;;;;;;;2.42;0.63;;;;;;;-2.32;65.68;101659.22;5041362;28;20083;-74
2024/01/01 00:56:30;;;;;;;3.22;1.20;;;;;;;-2.31;66.21;101671.25;5042082;28;20555;-73
2024/01/01 00:58:57;;;;;;;2.35;0.90;;;;;;;-2.30;65.58;101674.69;5042593;28;20076;-73
2024/01/01 01:01:24;;;;;;;3.42;0.95;;;;;;;-2.31;65.09;101665.22;5039049;28;20120;-73
2024/01/01 01:03:52;;;;;;;1.85;1.20;;;;;;;-2.31;65.55;101671.25;5042618;28;20167;-73
2024/01/01 01:06:20;;;;;;;1.85;1.00;;;;;;;-2.30;65.55;101665.31;5039605;28;20128;-73
2024/01/01 01:08:47;;;;;;;1.77;1.05;;;;;;;-2.30;64.99;101664.44;5043502;28;20135;-72
2024/01/01 01:11:14;;;;;;;2.25;0.73;;;;;;;-2.30;65.84;101656.75;5040298;28;20136;-72
2024/01/01 01:13:41;;;;;;;2.05;0.90;;;;;;;-2.29;65.71;101659.34;5042380;28;20077;-72
2024/01/01 01:16:08;;;;;;;1.80;1.00;;;;;;;-2.30;65.49;101667.00;5041919;28;20113;-72
2024/01/01 01:18:35;;;;;;;1.85;0.80;;;;;;;-2.29;65.87;101661.06;5039954;28;20095;-72
2024/01/01 01:21:03;;;;;;;1.58;0.70;;;;;;;-2.29;65.55;101659.34;5036098;28;20563;-72
2024/01/01 01:23:30;;;;;;;1.48;0.50;;;;;;;-2.29;65.38;101656.78;5043175;28;20098;-73
2024/01/01 01:25:57;;;;;;;1.10;0.70;;;;;;;-2.28;66.02;101656.00;5043466;28;20149;-72
2024/01/01 01:28:25;;;;;;;1.15;0.77;;;;;;;-2.26;65.70;101658.63;5040293;28;20090;-72
2024/01/01 01:30:52;;;;;;;1.23;0.70;;;;;;;-2.26;66.23;101662.06;5041198;28;20060;-73
2024/01/01 01:33:19;;;;;;;2.42;1.13;;;;;;;-2.27;65.90;101657.75;5039266;28;20052;-72
2024/01/01 01:35:46;;;;;;;1.30;0.80;;;;;;;-2.25;65.89;101661.25;5037809;28;20084;-73
2024/01/01 01:38:14;;;;;;;1.65;0.85;;;;;;;-2.25;65.67;101651.00;5041470;28;20144;-72
2024/01/01 01:40:41;;;;;;;2.58;0.70;;;;;;;-2.24;65.88;101647.63;5037951;28;20124;-72
2024/01/01 01:43:21;;;;;;;3.60;0.80;;;;;;;-2.22;65.63;101647.72;5043167;28;20045;-72
2024/01/01 01:45:48;;;;;;;1.50;0.80;;;;;;;-2.23;65.86;101644.25;5034977;28;20044;-72
2024/01/01 01:48:16;;;;;;;3.33;0.85;;;;;;;-2.21;65.60;101644.31;5041494;28;20085;-72
2024/01/01 01:50:45;;;;;;;1.65;0.70;;;;;;;-2.20;66.13;101646.94;5041997;28;20069;-72
2024/01/01 01:53:14;;;;;;;1.45;0.60;;;;;;;-2.17;65.70;101648.75;5043970;28;20083;-83
2024/01/01 01:55:44;;;;;;;1.90;0.80;;;;;;;-2.20;65.80;101635.81;5046234;28;20563;-83
2024/01/01 01:58:12;;;;;;;1.10;0.60;;;;;;;-2.16;66.24;101643.72;5045637;28;20072;-83
2024/01/01 02:00:39;;;;;;;2.95;0.90;;;;;;;-2.16;65.08;101643.72;5046663;28;20045;-83
2024/01/01 02:03:08;;;;;;;0.73;0.57;;;;;;;-2.16;65.23;101641.16;5046353;28;20475;-82
2024/01/01 02:05:35;;;;;;;1.92;0.70;;;;;;;-2.15;65.74;101642.88;5047654;28;20044;-82
2024/01/01 02:08:03;;;;;;;1.67;0.52;;;;;;;-2.13;66.21;101637.84;5041452;28;20049;-82
2024/01/01 02:10:31;;;;;;;1.55;0.93;;;;;;;-2.12;66.01;101629.31;5043095;28;20080;-83
2024/01/01 02:12:58;;;;;;;2.90;0.70;;;;;;;-2.10;65.77;101630.28;5045961;28;20068;-82
2024/01/01 02:15:25;;;;;;;0.60;0.50;;;;;;;-2.08;65.93;101632.88;5046596;28;20048;-82
2024/01/01 02:17:52;;;;;;;1.38;0.65;;;;;;;-2.06;65.83;101621.03;5047775;28;20049;-83
2024/01/01 02:20:19;;;;;;;1.67;0.75;;;;;;;-2.05;65.83;101631.34;5048114;28;20159;-83
2024/01/01 02:22:47;;;;;;;3.05;0.88;;;;;;;-2.03;65.97;101621.16;5046428;28;20121;-82
2024/01/01 02:25:17;;;;;;;2.35;0.65;;;;;;;-2.04;66.67;101624.53;5043853;28;20576;-82
2024/01/01 02:27:44;;;;;;;2.60;0.90;;;;;;;-2.01;66.08;101624.66;5040538;28;20049;-81
2024/01/01 02:30:11;;;;;;;1.20;0.77;;;;;;;-2.00;65.87;101626.41;5047677;28;20128;-83
2024/01/01 02:32:38;;;;;;;1.58;0.63;;;;;;;-1.99;65.83;101625.63;5047577;28;20053;-82
2024/01/01 02:35:08;;;;;;;2.45;0.90;;;;;;;-2.02;66.04;101617.78;5046376;28;20052;-83
2024/01/01 02:37:35;;;;;;;1.48;1.10;;;;;;;-1.99;66.86;101621.34;5047738;28;20056;-83
2024/01/01 02:40:03;;;;;;;1.40;0.65;;;;;;;-1.97;66.20;101618.84;5044144;28;20144;-83
2024/01/01 02:42:32;;;;;;;2.35;1.00;;;;;;;-1.98;66.10;101620.53;5043761;28;20670;-84
2024/01/01 02:44:59;;;;;;;1.80;0.85;;;;;;;-1.96;65.78;101623.16;5044081;28;20056;-82
2024/01/01 02:47:26;;;;;;;2.45;0.65;;;;;;;-1.96;65.98;101618.03;5046261;28;20103;-83
2024/01/01 02:49:53;;;;;;;2.38;0.82;;;;;;;-1.93;66.36;101613.03;5046884;28;20065;-83
2024/01/01 02:52:20;;;;;;;2.75;1.10;;;;;;;-1.94;66.19;101611.28;5045027;28;20088;-71
2024/01/01 02:54:46;;;;;;;1.75;0.60;;;;;;;-1.92;65.75;101614.78;5041589;28;20054;-71
2024/01/01 02:57:14;;;;;;;1.52;0.60;;;;;;;-1.93;66.08;101607.91;5045293;28;20073;-71
2024/01/01 02:59:43;;;;;;;1.20;0.63;;;;;;;-1.91;66.44;101603.72;5043574;28;20045;-72
2024/01/01 03:02:11;;;;;;;3.10;0.95;;;;;;;-1.90;66.21;101608.03;5040772;28;20138;-71
2024/01/01 03:04:38;;;;;;;1.92;0.82;;;;;;;-1.89;66.55;101603.78;5040371;28;20049;-71
2024/01/01 03:07:05;;;;;;;3.15;0.70;;;;;;;-1.89;66.40;101603.78;5044740;28;20503;-71
2024/01/01 03:09:32;;;;;;;1.48;0.77;;;;;;;-1.88;65.89;101601.28;5045062;28;20077;-71
2024/01/01 03:11:59;;;;;;;1.45;0.90;;;;;;;-1.86;66.37;101609.03;5044304;28;20150;-71
2024/01/01 03:14:26;;;;;;;4.45;1.00;;;;;;;-1.86;66.39;101609.91;5040596;28;20128;-71
2024/01/01 03:16:54;;;;;;;1.70;0.75;;;;;;;-1.85;66.68;101601.41;5044719;28;20493;-71
2024/01/01 03:19:22;;;;;;;1.88;0.93;;;;;;;-1.85;66.50;101601.41;5042491;28;20041;-71
2024/01/01 03:21:49;;;;;;;2.05;0.77;;;;;;;-1.84;67.33;101603.16;5041514;28;20132;-71
2024/01/01 03:24:16;;;;;;;3.30;1.15;;;;;;;-1.83;66.81;101599.75;5038841;28;20132;-71
2024/01/01 03:26:43;;;;;;;1.90;1.20;;;;;;;-1.82;66.78;101604.09;5041799;28;20124;-72
2024/01/01 03:29:10;;;;;;;2.92;1.25;;;;;;;-1.80;66.99;101606.72;5044408;28;20131;-71
2024/01/01 03:31:37;;;;;;;2.97;0.98;;;;;;;-1.81;66.66;101608.41;5040972;28;20554;-71
2024/01/01 03:34:08;;;;;;;3.05;1.45;;;;;;;-1.79;67.71;101609.34;5041171;28;20124;-71
2024/01/01 03:36:34;;;;;;;2.00;0.85;;;;;;;-1.78;66.56;101608.53;5039694;28;20115;-71
2024/01/01 03:39:02;;;;;;;1.55;0.82;;;;;;;-1.77;67.29;101612.88;5038457;28;21284;-71
2024/01/01 03:41:29;;;;;;;1.88;1.00;;;;;;;-1.77;67.35;101612.88;5040495;28;20041;-71
2024/01/01 03:43:56;;;;;;;1.92;1.05;;;;;;;-1.77;67.48;101609.41;5042339;28;20148;-71
2024/01/01 03:46:23;;;;;;;1.63;1.02;;;;;;;-1.78;66.99;101605.97;5042662;28;20048;-71
2024/01/01 03:48:50;;;;;;;2.40;1.33;;;;;;;-1.78;67.36;101612.78;5042540;28;20128;-71
2024/01/01 03:51:18;;;;;;;0.50;0.30;;;;;;;-1.79;67.50;101616.19;5040794;28;20637;-71
2024/01/01 03:53:45;;;;;;;2.85;0.80;;;;;;;-1.79;67.26;101608.47;5046471;28;20128;-71
2024/01/01 03:56:12;;;;;;;1.10;0.70;;;;;;;-1.82;67.31;101616.94;5040712;28;20076;-72
2024/01/01 03:58:39;;;;;;;1.23;0.93;;;;;;;-1.83;67.38;101615.16;5042279;28;20052;-72
2024/01/01 04:01:12;;;;;;;1.15;0.73;;;;;;;-1.89;67.42;101603.78;5043508;28;20065;-71
2024/01/01 04:03:39;;;;;;;1.73;0.93;;;;;;;-1.85;66.88;101614.25;5042926;28;20850;-78
2024/01/01 04:06:08;;;;;;;1.45;1.08;;;;;;;-1.86;67.54;101609.91;5048538;28;20072;-78
2024/01/01 04:08:36;;;;;;;1.08;0.73;;;;;;;-1.88;67.73;101611.56;5049944;28;20041;-79
2024/01/01 04:11:03;;;;;;;1.20;0.70;;;;;;;-1.89;67.78;101609.78;5051760;28;20073;-68
2024/01/01 04:13:30;;;;;;;1.58;0.40;;;;;;;-1.88;67.38;101610.66;5039929;28;20040;-68
2024/01/01 04:15:57;;;;;;;2.75;0.60;;;;;;;-1.90;66.59;101605.47;5039702;28;20123;-67
2024/01/01 04:18:24;;;;;;;1.50;0.40;;;;;;;-1.91;66.46;101601.16;5038824;28;20392;-68
2024/01/01 04:20:53;;;;;;;2.35;0.70;;;;;;;-1.92;66.60;101609.66;5039232;28;20129;-67
2024/01/01 04:23:20;;;;;;;6.82;0.90;;;;;;;-1.94;66.43;101614.72;5041274;28;20053;-68
2024/01/01 04:25:48;;;;;;;0.93;0.50;;;;;;;-1.95;66.81;101599.28;5041491;28;20064;-68
2024/01/01 04:28:15;;;;;;;1.10;0.57;;;;;;;-1.96;66.22;101593.28;5038955;28;20492;-67
2024/01/01 04:30:42;;;;;;;1.27;0.80;;;;;;;-1.97;67.10;101600.88;5039243;28;20082;-67
2024/01/01 04:33:09;;;;;;;1.98;0.50;;;;;;;-1.98;66.97;101606.84;5038966;28;20637;-67
2024/01/01 04:35:36;;;;;;;2.13;0.50;;;;;;;-1.98;67.06;101606.84;5041905;28;20081;-68
2024/01/01 04:38:03;;;;;;;1.73;0.60;;;;;;;-1.98;65.86;101609.41;5042150;28;20422;-67
2024/01/01 04:40:32;;;;;;;2.08;0.35;;;;;;;-1.99;65.92;101610.22;5038138;28;20144;-68
2024/01/01 04:43:00;;;;;;;1.88;0.60;;;;;;;-1.99;66.17;101612.78;5037742;28;20111;-68
2024/01/01 04:45:27;;;;;;;1.27;0.57;;;;;;;-2.02;65.85;101604.97;5038749;28;20159;-67
2024/01/01 04:47:54;;;;;;;0.95;0.32;;;;;;;-2.02;66.34;101602.41;5040942;28;20131;-68
2024/01/01 04:50:21;;;;;;;3.13;0.50;;;;;;;-2.03;66.67;101604.06;5040073;28;20041;-68
2024/01/01 04:52:48;;;;;;;1.35;0.63;;;;;;;-2.03;66.56;101604.06;5041557;28;20069;-67
2024/01/01 04:55:15;;;;;;;1.23;0.80;;;;;;;-2.04;66.32;101606.59;5037929;28;20152;-67
2024/01/01 04:57:43;;;;;;;0.45;0.30;;;;;;;-2.03;65.69;101592.94;5037390;28;20135;-67
2024/01/01 05:00:13;;;;;;;1.50;0.40;;;;;;;-2.04;66.43;101593.75;5042183;28;20125;-67
2024/01/01 05:02:40;;;;;;;1.00;0.52;;;;;;;-2.03;66.00;101598.94;5039864;28;20056;-67
2024/01/01 05:05:08;;;;;;;1.33;0.63;;;;;;;-2.02;66.77;101597.28;5041764;28;20114;-67
2024/01/01 05:07:35;;;;;;;0.85;0.38;;;;;;;-2.02;66.44;101602.41;5040913;28;20056;-67
2024/01/01 05:10:02;;;;;;;1.55;0.50;;;;;;;-2.02;66.71;101593.03;5040661;28;20077;-68
2024/01/01 05:12:29;;;;;;;1.17;0.50;;;;;;;-2.01;66.55;101599.03;5037884;28;20503;-73
2024/01/01 05:14:56;;;;;;;1.30;0.63;;;;;;;-2.00;66.60;101595.63;5039370;28;20418;-73
2024/01/01 05:17:24;;;;;;;1.67;0.50;;;;;;;-2.00;66.39;101595.63;5041140;28;20068;-73
2024/01/01 05:19:51;;;;;;;1.52;0.40;;;;;;;-2.00;67.02;101598.19;5036680;28;20069;-72
2024/01/01 05:22:18;;;;;;;1.48;0.40;;;;;;;-2.00;66.76;101586.25;5042584;28;20083;-82
2024/01/01 05:24:45;;;;;;;2.67;1.13;;;;;;;-2.02;66.38;101592.16;5044716;28;20076;-82
2024/01/01 05:27:12;;;;;;;0.60;0.30;;;;;;;-2.00;66.62;101598.19;5053156;28;20080;-82
2024/01/01 05:29:42;;;;;;;2.20;0.98;;;;;;;-1.99;66.49;101592.28;5046795;28;20049;-82
2024/01/01 05:32:08;;;;;;;2.33;0.80;;;;;;;-2.00;66.82;101593.06;5051603;28;20052;-82
2024/01/01 05:34:37;;;;;;;0.80;0.60;;;;;;;-2.00;66.85;101596.50;5045752;28;20072;-83
2024/01/01 05:37:04;;;;;;;2.83;0.63;;;;;;;-1.99;67.09;101605.09;5052060;28;20077;-82
2024/01/01 05:39:31;;;;;;;2.25;0.40;;;;;;;-2.00;66.23;101601.63;5041619;28;20057;-82
2024/01/01 05:41:58;;;;;;;0.60;0.50;;;;;;;-2.00;66.58;101604.19;5040566;28;20079;-82
2024/01/01 05:44:25;;;;;;;1.08;0.40;;;;;;;-2.03;66.64;101604.06;5049429;28;20079;-83
2024/01/01 05:46:52;;;;;;;2.05;0.40;;;;;;;-2.00;66.49;101611.88;5048228;28;20073;-82
2024/01/01 05:49:19;;;;;;;2.67;0.63;;;;;;;-1.99;67.26;101617.91;5053053;28;20091;-82
2024/01/01 05:51:48;;;;;;;1.27;0.50;;;;;;;-1.98;67.14;101609.41;5049361;28;20041;-82
2024/01/01 05:54:15;;;;;;;2.60;0.50;;;;;;;-1.98;66.60;101611.97;5055371;28;20049;-82
2024/01/01 05:56:44;;;;;;;2.50;0.40;;;;;;;-1.97;67.45;101606.00;5050227;28;20073;-82
2024/01/01 05:59:11;;;;;;;1.33;0.63;;;;;;;-1.96;66.87;101618.03;5042738;28;20084;-82
2024/01/01 06:01:37;;;;;;;3.00;0.50;;;;;;;-1.96;67.46;101610.34;5053266;28;20073;-82
2024/01/01 06:04:05;;;;;;;0.70;0.40;;;;;;;-1.97;67.29;101616.28;5051921;28;20530;-82
2024/01/01 06:06:32;;;;;;;1.00;0.50;;;;;;;-1.94;67.27;101616.41;5052212;28;20746;-82
2024/01/01 06:09:00;;;;;;;2.65;0.55;;;;;;;-1.93;66.96;101620.72;5043475;28;20124;-83
2024/01/01 06:11:27;;;;;;;4.13;0.52;;;;;;;-1.92;66.50;101619.91;5032987;28;20084;-82
2024/01/01 06:13:54;;;;;;;1.77;0.52;;;;;;;-1.91;67.06;101619.13;5047796;28;20619;-82
2024/01/01 06:16:21;;;;;;;0.80;0.60;;;;;;;-1.90;67.17;101618.28;5045862;28;20049;-82
2024/01/01 06:18:48;;;;;;;3.38;0.52;;;;;;;-1.89;67.76;101630.28;5042390;28;20484;-82
2024/01/01 06:21:15;;;;;;;2.80;0.73;;;;;;;-1.89;67.76;101622.59;5048575;28;20080;-79
2024/01/01 06:23:45;;;;;;;1.00;0.43;;;;;;;-1.88;67.62;101624.38;5042750;28;20057;-78
2024/01/01 06:26:13;;;;;;;1.02;0.50;;;;;;;-1.87;68.02;101623.56;5050338;28;20410;-78
2024/01/01 06:28:40;;;;;;;1.38;0.60;;;;;;;-1.87;67.12;101625.25;5051244;28;20090;-78
2024/01/01 06:31:07;;;;;;;1.83;0.60;;;;;;;-1.85;67.29;101631.28;5049428;28;20080;-71
2024/01/01 06:33:34;;;;;;;1.13;0.73;;;;;;;-1.87;66.95;101618.41;5037240;28;20081;-71
2024/01/01 06:36:01;;;;;;;2.53;0.70;;;;;;;-1.86;66.98;101615.03;5040650;28;20075;-71
2024/01/01 06:38:28;;;;;;;1.58;0.60;;;;;;;-1.86;67.09;101627.84;5038645;28;20092;-71
2024/01/01 06:40:55;;;;;;;1.20;0.60;;;;;;;-1.85;67.24;101624.50;5038461;28;20045;-71
2024/01/01 06:43:24;;;;;;;1.90;0.85;;;;;;;-1.86;68.35;101632.97;5044365;28;20546;-71
2024/01/01 06:45:51;;;;;;;2.05;0.68;;;;;;;-1.86;67.94;101629.56;5042775;28;20203;-71
2024/01/01 06:48:18;;;;;;;1.38;0.70;;;;;;;-1.87;67.83;101628.69;5042717;28;20136;-71
2024/01/01 06:50:45;;;;;;;4.80;1.17;;;;;;;-1.87;68.54;101631.25;5042339;28;20076;-72
2024/01/01 06:53:12;;;;;;;1.15;0.40;;;;;;;-1.86;68.84;101635.56;5044251;28;20091;-72
2024/01/01 06:55:39;;;;;;;2.65;1.02;;;;;;;-1.85;68.01;101636.41;5043385;28;20144;-72
2024/01/01 06:58:06;;;;;;;4.80;0.50;;;;;;;-1.84;68.40;101633.94;5042361;28;20478;-71
2024/01/01 07:00:34;;;;;;;2.15;0.50;;;;;;;-1.84;68.50;101635.63;5044865;28;20503;-71
2024/01/01 07:03:01;;;;;;;3.17;0.50;;;;;;;-1.84;68.39;101635.63;5043556;28;20129;-71
2024/01/01 07:05:29;;;;;;;1.60;0.60;;;;;;;-1.85;68.31;101632.19;5042371;28;20096;-72
2024/01/01 07:07:56;;;;;;;2.22;0.60;;;;;;;-1.85;68.10;101629.63;5044235;28;20127;-71
2024/01/01 07:10:23;;;;;;;1.02;0.50;;;;;;;-1.84;67.77;101640.75;5042988;28;20120;-72
2024/01/01 07:12:50;;;;;;;1.05;0.40;;;;;;;-1.84;68.24;101633.94;5044869;28;20041;-73
2024/01/01 07:15:17;;;;;;;0.90;0.80;;;;;;;-1.84;68.39;101628.81;5044429;28;20539;-71
2024/01/01 07:17:45;;;;;;;0.70;0.40;;;;;;;-1.82;68.37;101636.56;5041692;28;20045;-71
2024/01/01 07:20:12;;;;;;;1.58;0.32;;;;;;;-1.83;68.38;101633.09;5041637;28;20184;-71
2024/01/01 07:22:39;;;;;;;1.80;0.43;;;;;;;-1.80;67.86;101637.50;5043575;28;20077;-71
2024/01/01 07:25:09;;;;;;;0.95;0.40;;;;;;;-1.81;68.54;101636.63;5043973;28;20053;-71
2024/01/01 07:27:36;;;;;;;1.80;0.45;;;;;;;-1.83;67.88;101635.69;5042971;28;20055;-71
2024/01/01 07:30:04;;;;;;;0.80;0.50;;;;;;;-1.84;67.82;101633.06;5043100;28;20132;-72
2024/01/01 07:32:30;;;;;;;0.73;0.47;;;;;;;-1.84;67.56;101631.38;5042096;28;20175;-72
2024/01/01 07:34:59;;;;;;;1.30;0.50;;;;;;;-1.86;68.11;101635.56;5041490;28;20077;-73
2024/01/01 07:37:26;;;;;;;0.60;0.40;;;;;;;-1.85;68.04;101632.19;5042851;28;20060;-73
2024/01/01 07:39:53;;;;;;;2.17;0.60;;;;;;;-1.85;67.17;101633.84;5039125;28;20139;-73
2024/01/01 07:42:21;;;;;;;0.63;0.35;;;;;;;-1.85;68.13;101626.16;5042660;28;20076;-73
2024/01/01 07:44:48;;;;;;;1.17;0.40;;;;;;;-1.85;67.69;101632.19;5040573;28;20076;-73
2024/01/01 07:47:16;;;;;;;0.80;0.40;;;;;;;-1.84;68.03;101630.50;5041956;28;20136;-73
2024/01/01 07:49:44;;;;;;;1.35;0.50;;;;;;;-1.84;67.32;101633.94;5040803;28;20046;-73
2024/01/01 07:52:13;;;;;;;1.65;0.65;;;;;;;-1.83;67.45;101647.63;5042393;28;20080;-73
2024/01/01 07:54:40;;;;;;;0.80;0.40;;;;;;;-1.84;67.31;101641.63;5041875;28;20073;-73
2024/01/01 07:57:07;;;;;;;3.15;0.40;;;;;;;-1.86;67.16;101635.56;5041833;28;20046;-73
2024/01/01 07:59:34;;;;;;;0.52;0.30;;;;;;;-1.86;67.42;101639.81;5040982;28;20077;-72
2024/01/01 08:02:01;;;;;;;3.15;0.98;;;;;;;-1.86;66.85;101643.25;5042812;28;20044;-73
2024/01/01 08:04:28;;;;;;;1.35;1.17;;;;;;;-1.86;67.30;101650.06;5041270;28;20179;-73
2024/01/01 08:06:55;;;;;;;1.13;0.40;;;;;;;-1.88;67.29;101639.75;5039517;28;20088;-75
2024/01/01 08:09:24;;;;;;;1.58;0.50;;;;;;;-1.87;66.73;101641.50;5040651;28;20083;-73
2024/01/01 08:11:51;;;;;;;3.42;1.40;;;;;;;-1.87;66.92;101636.38;5039697;28;20587;-73
2024/01/01 08:14:18;;;;;;;3.55;0.57;;;;;;;-1.87;66.40;101638.94;5042029;28;20082;-72
2024/01/01 08:16:45;;;;;;;1.13;0.50;;;;;;;-1.87;66.88;101641.50;5041614;28;20076;-73
2024/01/01 08:19:12;;;;;;;0.52;0.30;;;;;;;-1.85;66.92;101644.13;5041863;28;20041;-73
2024/01/01 08:21:39;;;;;;;1.02;0.45;;;;;;;-1.87;67.49;101638.94;5043529;28;20049;-72
2024/01/01 08:24:07;;;;;;;1.27;0.40;;;;;;;-1.88;66.42;101637.19;5047745;28;20491;-73
2024/01/01 08:26:35;;;;;;;0.65;0.35;;;;;;;-1.87;66.92;101640.63;5041488;28;20073;-73
2024/01/01 08:29:02;;;;;;;0.70;0.40;;;;;;;-1.88;66.55;101632.06;5040646;28;20571;-72
2024/01/01 08:31:29;;;;;;;2.50;0.60;;;;;;;-1.88;66.77;101634.63;5041385;28;20091;-73
2024/01/01 08:33:56;;;;;;;1.40;0.57;;;;;;;-1.88;66.61;101636.28;5036766;28;20116;-75
2024/01/01 08:36:23;;;;;;;0.75;0.43;;;;;;;-1.88;66.41;101637.19;5042632;28;20045;-73
2024/01/01 08:38:50;;;;;;;0.63;0.35;;;;;;;-1.89;66.47;101638.00;5038743;28;20128;-73
2024/01/01 08:41:17;;;;;;;1.33;0.43;;;;;;;-1.89;66.55;101635.44;5041239;28;20072;-70
2024/01/01 08:43:50;;;;;;;2.25;0.50;;;;;;;-1.89;66.26;101643.13;5038877;28;20055;-70
2024/01/01 08:46:17;;;;;;;1.80;0.40;;;;;;;-1.91;66.84;101625.13;5041306;28;20124;-70
2024/01/01 08:48:45;;;;;;;2.67;0.75;;;;;;;-1.91;65.78;101627.69;5039820;28;20049;-70
2024/01/01 08:51:11;;;;;;;0.47;0.40;;;;;;;-1.92;66.40;101631.03;5040853;28;20045;-71
2024/01/01 08:53:38;;;;;;;5.78;0.52;;;;;;;-1.92;66.75;101630.16;5035072;28;20481;-67
2024/01/01 08:56:06;;;;;;;4.82;0.68;;;;;;;-1.92;66.14;101630.16;5039743;28;20084;-67
2024/01/01 08:58:33;;;;;;;1.98;0.50;;;;;;;-1.91;66.29;101634.50;5043054;28;20045;-67
2024/01/01 09:01:02;;;;;;;3.85;0.40;;;;;;;-1.92;66.51;101630.16;5040489;28;20518;-68
2024/01/01 09:03:30;;;;;;;0.90;0.40;;;;;;;-1.92;67.15;101635.31;5037706;28;20145;-68
2024/01/01 09:05:57;;;;;;;2.95;0.68;;;;;;;-1.93;66.48;101641.25;5040699;28;20073;-68
2024/01/01 09:08:25;;;;;;;0.70;0.47;;;;;;;-1.94;65.40;101629.22;5036376;28;20544;-68
2024/01/01 09:10:52;;;;;;;2.10;0.60;;;;;;;-1.95;65.95;101624.91;5039998;28;20140;-67
2024/01/01 09:13:19;;;;;;;1.25;0.65;;;;;;;-1.96;66.29;101638.56;5036184;28;20128;-67
2024/01/01 09:15:45;;;;;;;3.42;0.93;;;;;;;-1.95;65.84;101632.59;5040201;28;20535;-67
2024/01/01 09:18:14;;;;;;;1.13;0.70;;;;;;;-1.97;65.72;101636.78;5037587;28;20076;-67
2024/01/01 09:20:41;;;;;;;1.63;0.43;;;;;;;-1.97;65.80;101637.69;5043582;28;20076;-69
2024/01/01 09:23:08;;;;;;;1.02;0.60;;;;;;;-1.99;65.54;101633.31;5041671;28;20408;-68
2024/01/01 09:25:38;;;;;;;1.10;0.70;;;;;;;-2.00;65.95;101636.66;5042224;28;20069;-67
2024/01/01 09:28:05;;;;;;;3.03;0.38;;;;;;;-2.01;66.16;101632.34;5037267;28;20423;-67
2024/01/01 09:30:32;;;;;;;3.78;0.60;;;;;;;-2.00;65.48;101632.41;5034622;28;20117;-67
2024/01/01 09:32:59;;;;;;;2.03;0.47;;;;;;;-2.01;65.83;101628.09;5039090;28;20124;-67
2024/01/01 09:35:27;;;;;;;1.02;0.40;;;;;;;-2.00;66.24;101637.53;5037080;28;20087;-67
2024/01/01 09:37:55;;;;;;;1.65;0.50;;;;;;;-2.00;65.79;101631.53;5037649;28;20068;-66
2024/01/01 09:40:22;;;;;;;0.73;0.60;;;;;;;-2.01;65.35;101629.78;5043337;28;20842;-68
2024/01/01 09:42:49;;;;;;;1.63;0.68;;;;;;;-2.03;64.12;101633.97;5045004;28;20068;-70
2024/01/01 09:45:16;;;;;;;0.80;0.50;;;;;;;-2.05;64.96;101633.03;5038190;28;20497;-72
2024/01/01 09:47:44;;;;;;;0.90;0.30;;;;;;;-2.06;65.64;101633.84;5040071;28;20484;-69
2024/01/01 09:50:11;;;;;;;1.17;0.60;;;;;;;-2.08;65.58;101638.00;5034631;28;20124;-68
2024/01/01 09:52:39;;;;;;;0.77;0.43;;;;;;;-2.06;64.94;101644.09;5039698;28;20072;-76
2024/01/01 09:55:07;;;;;;;0.82;0.40;;;;;;;-2.07;65.06;101645.78;5040034;28;20126;-72
2024/01/01 09:57:34;;;;;;;1.63;0.68;;;;;;;-2.08;65.04;101643.16;5039040;28;20060;-73
2024/01/01 10:00:05;;;;;;;0.70;0.50;;;;;;;-2.07;64.83;101640.66;5039568;28;20103;-73
2024/01/01 10:02:32;;;;;;;0.75;0.40;;;;;;;-2.07;65.03;101647.47;5039169;28;20050;-73
2024/01/01 10:05:11;;;;;;;0.95;0.50;;;;;;;-2.07;65.22;101648.34;5036870;28;20147;-75
2024/01/01 10:07:40;;;;;;;1.67;0.50;;;;;;;-2.08;64.57;101643.16;5039392;28;20041;-75
2024/01/01 10:10:07;;;;;;;1.70;0.57;;;;;;;-2.10;64.83;101634.53;5040137;28;20132;-73
2024/01/01 10:12:34;;;;;;;0.50;0.40;;;;;;;-2.11;64.36;101637.88;5038133;28;21310;-73
2024/01/01 10:15:01;;;;;;;1.52;0.55;;;;;;;-2.11;65.14;101637.88;5039005;28;20512;-71
2024/01/01 10:17:29;;;;;;;1.42;0.40;;;;;;;-2.15;64.87;101627.50;5044958;28;20080;-73
2024/01/01 10:19:57;;;;;;;1.95;1.00;;;;;;;-2.12;64.35;101631.91;5033968;28;20072;-72
2024/01/01 10:22:29;;;;;;;1.45;0.80;;;;;;;-2.13;63.96;101635.28;5046792;28;20092;-76
2024/01/01 10:25:11;;;;;;;0.60;0.38;;;;;;;-2.14;65.24;101631.84;5044391;28;20161;-76
2024/01/01 10:27:38;;;;;;;0.50;0.50;;;;;;;-2.14;65.28;101647.22;5044617;28;20069;-79
2024/01/01 10:30:06;;;;;;;1.42;0.70;;;;;;;-2.14;64.08;101643.75;5041839;28;20057;-74
2024/01/01 10:32:34;;;;;;;1.13;0.50;;;;;;;-2.15;64.24;101642.03;5038370;28;20123;-69
2024/01/01 10:35:03;;;;;;;3.03;0.52;;;;;;;-2.17;64.62;101630.81;5041209;28;20118;-72
2024/01/01 10:37:31;;;;;;;3.15;0.50;;;;;;;-2.19;64.44;101635.88;5040442;28;20123;-77
2024/01/01 10:40:05;;;;;;;1.45;0.52;;;;;;;-2.18;64.68;101636.75;5039353;28;20103;-73
2024/01/01 10:42:34;;;;;;;3.15;0.60;;;;;;;-2.21;64.48;101632.38;5042027;28;20555;-72
2024/01/01 10:45:03;;;;;;;2.20;0.43;;;;;;;-2.17;64.45;101639.41;5042818;28;20053;-75
2024/01/01 10:47:30;;;;;;;0.68;0.43;;;;;;;-2.19;64.14;101641.03;5041233;28;20552;-78
2024/01/01 10:50:22;;;;;;;1.73;0.45;;;;;;;-2.18;64.54;101631.63;5042961;28;20418;-72
2024/01/01 10:53:05;;;;;;;0.93;0.63;;;;;;;-2.17;64.59;101641.97;5042565;28;20124;-73
2024/01/01 10:55:55;;;;;;;0.93;0.60;;;;;;;-2.18;64.47;101653.00;5016108;28;20431;-74
2024/01/01 10:58:31;;;;;;;2.72;0.22;;;;;;;-2.18;64.27;101640.19;5047631;28;20131;-87
2024/01/01 11:01:05;;;;;;;1.85;0.47;;;;;;;-2.27;63.64;101616.72;5051490;28;20072;-88
2024/01/01 11:03:33;;;;;;;0.70;0.50;;;;;;;-2.23;64.76;101633.97;5046399;28;20056;-76
2024/01/01 11:06:26;;;;;;;1.45;0.40;;;;;;;-2.23;64.62;101639.13;5046929;28;20081;-75
2024/01/01 11:08:55;;;;;;;1.63;0.40;;;;;;;-2.23;65.00;101639.13;5040435;28;20429;-75
2024/01/01 11:11:25;;;;;;;1.05;0.50;;;;;;;-2.24;64.88;101639.94;5045187;28;20132;-87
2024/01/01 11:13:53;;;;;;;0.60;0.30;;;;;;;-2.25;64.25;101638.19;5052858;28;20518;-86
2024/01/01 11:16:20;;;;;;;5.97;1.70;;;;;;;-2.24;64.67;101628.81;5050488;28;20052;-83
2024/01/01 11:18:48;;;;;;;3.40;0.60;;;;;;;-2.24;64.59;101632.25;5058559;28;20487;-83
2024/01/01 11:21:27;;;;;;;1.75;0.45;;;;;;;-2.23;64.49;101628.88;5046750;28;20052;-81
2024/01/01 11:23:54;;;;;;;2.47;0.50;;;;;;;-2.24;65.22;101634.81;5047561;28;20057;-79
2024/01/01 11:26:32;;;;;;;0.77;0.60;;;;;;;-2.23;64.31;101633.13;5048952;28;20475;-82